createdAt,value
2022-10-25T00:00:56.819Z,14.40
2022-10-25T00:03:23.545Z,14.40
2022-10-25T00:05:50.248Z,14.40
2022-10-25T00:08:18.087Z,14.30
2022-10-25T00:10:44.871Z,14.40
2022-10-25T00:13:11.570Z,14.40
2022-10-25T00:15:38.632Z,14.40
2022-10-25T00:18:05.547Z,14.40
2022-10-25T00:20:32.237Z,14.40
2022-10-25T00:22:58.991Z,14.40
2022-10-25T00:25:25.708Z,14.40
2022-10-25T00:27:52.425Z,14.40
2022-10-25T00:30:19.275Z,14.40
2022-10-25T00:32:46.266Z,14.40
2022-10-25T00:35:13.253Z,14.40
2022-10-25T00:37:40.027Z,14.30
2022-10-25T00:40:07.420Z,14.30
2022-10-25T00:42:34.119Z,14.30
2022-10-25T00:45:17.864Z,14.30
2022-10-25T00:47:46.530Z,14.30
2022-10-25T00:50:22.694Z,14.20
2022-10-25T00:52:53.338Z,14.20
2022-10-25T00:55:24.027Z,14.20
2022-10-25T00:58:05.489Z,14.20
2022-10-25T01:00:32.456Z,14.20
2022-10-25T01:02:59.845Z,14.20
2022-10-25T01:05:26.891Z,14.10
2022-10-25T01:07:54.074Z,14.10
2022-10-25T01:10:20.875Z,14.10
2022-10-25T01:12:51.256Z,14.20
2022-10-25T01:15:21.603Z,14.10
2022-10-25T01:18:00.349Z,14.10
2022-10-25T01:20:45.869Z,14.00
2022-10-25T01:23:58.020Z,14.00
2022-10-25T01:26:39.489Z,14.00
2022-10-25T01:29:12.312Z,14.00
2022-10-25T01:31:47.881Z,13.90
2022-10-25T01:34:30.172Z,13.90
2022-10-25T01:37:06.135Z,13.90
2022-10-25T01:39:49.420Z,13.90
2022-10-25T01:42:19.210Z,13.90
2022-10-25T01:45:22.824Z,13.90
2022-10-25T01:48:00.841Z,13.80
2022-10-25T01:50:33.894Z,13.80
2022-10-25T01:53:00.929Z,13.80
2022-10-25T01:55:47.693Z,13.80
2022-10-25T01:58:21.971Z,13.70
2022-10-25T02:00:59.939Z,13.70
2022-10-25T02:03:34.960Z,13.70
2022-10-25T02:06:34.211Z,13.70
2022-10-25T02:09:14.976Z,13.70
2022-10-25T02:11:41.722Z,13.60
2022-10-25T02:14:27.710Z,13.60
2022-10-25T02:17:03.421Z,13.60
2022-10-25T02:19:38.278Z,13.50
2022-10-25T02:22:09.260Z,13.50
2022-10-25T02:24:36.695Z,13.50
2022-10-25T02:27:05.404Z,13.50
2022-10-25T02:29:34.164Z,13.40
2022-10-25T02:32:03.275Z,13.40
2022-10-25T02:34:30.337Z,13.40
2022-10-25T02:36:57.120Z,13.40
2022-10-25T02:39:29.170Z,13.40
2022-10-25T02:41:58.155Z,13.30
2022-10-25T02:44:24.846Z,13.40
2022-10-25T02:46:51.559Z,13.30
2022-10-25T02:49:18.232Z,13.30
2022-10-25T02:51:45.003Z,13.30
2022-10-25T02:54:11.793Z,13.30
2022-10-25T02:56:38.793Z,13.30
2022-10-25T02:59:05.667Z,13.30
2022-10-25T03:01:32.494Z,13.30
2022-10-25T03:03:59.260Z,13.30
2022-10-25T03:06:25.966Z,13.30
2022-10-25T03:08:52.694Z,13.30
2022-10-25T03:11:19.733Z,13.30
2022-10-25T03:13:46.484Z,13.30
2022-10-25T03:16:13.353Z,13.30
2022-10-25T03:18:40.068Z,13.30
2022-10-25T03:21:06.817Z,13.30
2022-10-25T03:23:34.101Z,13.30
2022-10-25T03:26:01.470Z,13.30
2022-10-25T03:28:29.598Z,13.20
2022-10-25T03:30:57.515Z,13.20
2022-10-25T03:33:24.873Z,13.20
2022-10-25T03:35:52.776Z,13.20
2022-10-25T03:38:19.666Z,13.20
2022-10-25T03:40:46.802Z,13.20
2022-10-25T03:43:13.677Z,13.10
2022-10-25T03:45:40.471Z,13.10
2022-10-25T03:48:07.419Z,13.10
2022-10-25T03:50:35.974Z,13.00
2022-10-25T03:53:04.236Z,13.10
2022-10-25T03:55:31.687Z,13.10
2022-10-25T03:57:58.529Z,13.10
2022-10-25T04:00:25.426Z,13.00
2022-10-25T04:03:01.774Z,13.00
2022-10-25T04:05:30.221Z,13.00
2022-10-25T04:07:57.100Z,13.00
2022-10-25T04:10:25.250Z,13.00
2022-10-25T04:12:53.809Z,13.00
2022-10-25T04:15:22.284Z,13.00
2022-10-25T04:17:53.162Z,13.00
2022-10-25T04:20:20.611Z,13.00
2022-10-25T04:22:54.238Z,13.00
2022-10-25T04:25:21.315Z,13.00
2022-10-25T04:27:48.437Z,13.00
2022-10-25T04:30:15.707Z,13.00
2022-10-25T04:32:42.437Z,12.90
2022-10-25T04:35:09.635Z,12.90
2022-10-25T04:37:36.361Z,12.90
2022-10-25T04:40:03.230Z,12.90
2022-10-25T04:42:33.225Z,12.90
2022-10-25T04:45:00.507Z,12.90
2022-10-25T04:47:31.061Z,12.80
2022-10-25T04:49:57.885Z,12.90
2022-10-25T04:52:24.648Z,12.90
2022-10-25T04:54:51.336Z,12.90
2022-10-25T04:57:18.046Z,12.90
2022-10-25T04:59:45.035Z,12.90
2022-10-25T05:02:12.355Z,12.90
2022-10-25T05:04:39.061Z,12.90
2022-10-25T05:07:05.779Z,12.90
2022-10-25T05:09:32.490Z,12.90
2022-10-25T05:11:59.198Z,12.90
2022-10-25T05:14:25.908Z,12.80
2022-10-25T05:16:52.605Z,12.90
2022-10-25T05:19:19.331Z,12.90
2022-10-25T05:21:47.676Z,12.80
2022-10-25T05:24:14.388Z,12.90
2022-10-25T05:26:41.072Z,12.80
2022-10-25T05:29:11.065Z,12.80
2022-10-25T05:31:39.508Z,12.80
2022-10-25T05:34:06.474Z,12.70
2022-10-25T05:36:33.434Z,12.70
2022-10-25T05:39:01.123Z,12.70
2022-10-25T05:41:30.711Z,12.70
2022-10-25T05:44:00.204Z,12.70
2022-10-25T05:46:27.238Z,12.70
2022-10-25T05:48:54.189Z,12.70
2022-10-25T05:51:37.228Z,12.70
2022-10-25T05:54:07.266Z,12.70
2022-10-25T05:56:35.409Z,12.70
2022-10-25T05:59:10.286Z,12.60
2022-10-25T06:01:42.533Z,12.60
2022-10-25T06:04:09.779Z,12.60
2022-10-25T06:06:38.535Z,12.60
2022-10-25T06:09:06.630Z,12.60
2022-10-25T06:11:33.661Z,12.60
2022-10-25T06:14:00.472Z,12.60
2022-10-25T06:16:27.387Z,12.60
2022-10-25T06:18:54.665Z,12.60
2022-10-25T06:21:23.854Z,12.60
2022-10-25T06:23:51.095Z,12.60
2022-10-25T06:26:20.260Z,12.60
2022-10-25T06:28:47.596Z,12.60
2022-10-25T06:31:17.018Z,12.60
2022-10-25T06:33:44.513Z,12.60
2022-10-25T06:36:15.355Z,12.60
2022-10-25T06:38:42.753Z,12.60
2022-10-25T06:41:18.896Z,12.70
2022-10-25T06:43:45.777Z,12.60
2022-10-25T06:46:20.134Z,12.60
2022-10-25T06:48:47.013Z,12.60
2022-10-25T06:51:13.763Z,12.60
2022-10-25T06:53:40.675Z,12.60
2022-10-25T06:56:13.434Z,12.70
2022-10-25T06:58:41.688Z,12.70
2022-10-25T07:01:12.509Z,12.70
2022-10-25T07:03:40.115Z,12.70
2022-10-25T07:06:14.556Z,12.70
2022-10-25T07:08:43.921Z,12.70
2022-10-25T07:11:16.936Z,12.70
2022-10-25T07:13:43.805Z,12.80
2022-10-25T07:16:13.135Z,12.80
2022-10-25T07:18:40.029Z,12.70
2022-10-25T07:21:10.319Z,12.80
2022-10-25T07:23:42.012Z,12.80
2022-10-25T07:26:13.327Z,12.80
2022-10-25T07:28:40.683Z,12.80
2022-10-25T07:31:08.085Z,12.80
2022-10-25T07:33:34.808Z,12.80
2022-10-25T07:36:16.912Z,12.80
2022-10-25T07:38:43.605Z,12.90
2022-10-25T07:41:10.893Z,12.90
2022-10-25T07:43:37.655Z,12.90
2022-10-25T07:46:05.839Z,12.80
2022-10-25T07:48:33.984Z,12.80
2022-10-25T07:51:06.472Z,12.80
2022-10-25T07:53:33.247Z,12.80
2022-10-25T07:56:00.166Z,12.70
2022-10-25T07:58:26.933Z,12.70
2022-10-25T08:00:59.461Z,12.70
2022-10-25T08:03:26.221Z,12.60
2022-10-25T08:05:52.970Z,12.60
2022-10-25T08:08:22.826Z,12.60
2022-10-25T08:10:49.791Z,12.60
2022-10-25T08:13:16.856Z,12.60
2022-10-25T08:15:50.732Z,12.60
2022-10-25T08:18:17.632Z,12.60
2022-10-25T08:21:01.094Z,12.60
2022-10-25T08:23:31.452Z,12.60
2022-10-25T08:25:58.725Z,12.60
2022-10-25T08:28:25.499Z,12.60
2022-10-25T08:30:54.450Z,12.60
2022-10-25T08:33:21.187Z,12.60
2022-10-25T08:35:47.948Z,12.50
2022-10-25T08:38:14.659Z,12.50
2022-10-25T08:40:59.536Z,12.50
2022-10-25T08:43:44.941Z,12.50
2022-10-25T08:46:25.991Z,12.50
2022-10-25T08:48:57.058Z,12.50
2022-10-25T08:51:39.435Z,12.50
2022-10-25T08:54:23.204Z,12.40
2022-10-25T08:57:03.694Z,12.50
2022-10-25T08:59:40.700Z,12.50
2022-10-25T09:02:22.103Z,12.50
2022-10-25T09:04:49.203Z,12.60
2022-10-25T09:07:41.982Z,12.60
2022-10-25T09:10:20.663Z,12.60
2022-10-25T09:12:58.645Z,12.70
2022-10-25T09:16:01.804Z,12.70
2022-10-25T09:18:43.116Z,12.80
2022-10-25T09:21:22.607Z,12.80
2022-10-25T09:24:11.358Z,12.80
2022-10-25T09:26:38.016Z,12.80
2022-10-25T09:29:14.419Z,12.80
2022-10-25T09:31:46.168Z,12.90
2022-10-25T09:34:16.494Z,12.90
2022-10-25T09:36:47.091Z,12.90
2022-10-25T09:39:34.014Z,12.90
2022-10-25T09:42:02.679Z,12.90
2022-10-25T09:44:43.650Z,12.90
2022-10-25T09:47:32.363Z,12.90
2022-10-25T09:50:06.643Z,12.90
2022-10-25T09:55:45.527Z,13.00
2022-10-25T09:58:19.207Z,13.00
2022-10-25T10:00:46.178Z,13.10
2022-10-25T10:03:13.842Z,13.10
2022-10-25T10:05:55.748Z,13.10
2022-10-25T10:08:23.390Z,13.10
2022-10-25T10:10:52.113Z,13.20
2022-10-25T10:13:40.199Z,13.20
2022-10-25T10:16:21.123Z,13.30
2022-10-25T10:18:48.471Z,13.30
2022-10-25T10:21:15.211Z,13.30
2022-10-25T10:23:41.881Z,13.40
2022-10-25T10:26:31.467Z,13.40
2022-10-25T10:29:09.152Z,13.30
2022-10-25T10:31:44.788Z,13.50
2022-10-25T10:34:24.077Z,13.50
2022-10-25T10:37:17.692Z,13.50
2022-10-25T10:39:51.484Z,13.50
2022-10-25T10:42:38.404Z,13.50
2022-10-25T10:45:08.250Z,13.60
2022-10-25T10:47:50.231Z,13.60
2022-10-25T10:50:23.236Z,13.60
2022-10-25T10:53:00.948Z,13.60
2022-10-25T10:55:45.849Z,13.70
2022-10-25T10:58:19.477Z,13.70
2022-10-25T11:01:19.658Z,13.70
2022-10-25T11:03:59.514Z,13.70
2022-10-25T11:06:34.581Z,13.70
2022-10-25T11:09:10.632Z,13.80
2022-10-25T11:11:37.510Z,13.80
2022-10-25T11:14:19.466Z,13.90
2022-10-25T11:16:46.141Z,13.90
2022-10-25T11:19:27.866Z,14.00
2022-10-25T11:22:12.749Z,14.00
2022-10-25T11:24:51.455Z,14.00
2022-10-25T11:27:35.029Z,14.00
2022-10-25T11:30:10.806Z,14.00
2022-10-25T11:32:48.883Z,14.00
2022-10-25T11:35:42.712Z,14.00
2022-10-25T11:38:15.496Z,14.10
2022-10-25T11:41:05.471Z,14.10
2022-10-25T11:43:38.049Z,14.20
2022-10-25T11:46:20.664Z,14.20
2022-10-25T11:49:03.451Z,14.20
2022-10-25T11:51:56.167Z,14.20
2022-10-25T11:54:35.956Z,14.20
2022-10-25T11:57:11.950Z,14.20
2022-10-25T11:59:57.340Z,14.20
2022-10-25T12:02:36.332Z,14.20
2022-10-25T12:05:27.911Z,14.20
2022-10-25T12:08:26.436Z,14.30
2022-10-25T12:11:13.766Z,14.30
2022-10-25T12:13:47.580Z,14.20
2022-10-25T12:16:17.908Z,14.30
2022-10-25T12:18:48.214Z,14.20
2022-10-25T12:21:30.924Z,14.20
2022-10-25T12:23:58.277Z,14.20
2022-10-25T12:26:40.757Z,14.30
2022-10-25T12:29:22.112Z,14.30
2022-10-25T12:32:00.939Z,14.20
2022-10-25T12:34:42.443Z,14.20
2022-10-25T12:37:18.364Z,14.30
2022-10-25T12:39:46.687Z,14.30
2022-10-25T12:42:21.643Z,14.40
2022-10-25T12:45:08.782Z,14.40
2022-10-25T12:47:54.208Z,14.40
2022-10-25T12:50:45.812Z,14.40
2022-10-25T12:53:49.019Z,14.40
2022-10-25T12:56:42.002Z,14.50
2022-10-25T12:59:33.580Z,14.60
2022-10-25T13:03:00.281Z,14.70
2022-10-25T13:05:59.861Z,14.90
2022-10-25T13:08:29.547Z,15.00
2022-10-25T13:11:02.592Z,15.10
2022-10-25T13:13:33.678Z,15.10
2022-10-25T13:16:04.416Z,15.10
2022-10-25T13:19:49.416Z,15.10
2022-10-25T13:22:37.437Z,15.10
2022-10-25T13:25:15.840Z,15.20
2022-10-25T13:28:16.087Z,15.20
2022-10-25T13:30:44.065Z,15.20
2022-10-25T13:33:21.409Z,15.10
2022-10-25T13:35:51.287Z,15.10
2022-10-25T13:38:27.472Z,15.10
2022-10-25T13:41:10.754Z,15.10
2022-10-25T13:43:58.612Z,15.10
2022-10-25T13:46:41.077Z,15.20
2022-10-25T13:49:28.895Z,15.30
2022-10-25T13:52:07.924Z,15.30
2022-10-25T13:54:50.127Z,15.30
2022-10-25T13:57:44.631Z,15.30
2022-10-25T14:00:37.281Z,15.30
2022-10-25T14:03:10.232Z,15.20
2022-10-25T14:06:07.916Z,15.30
2022-10-25T14:08:43.742Z,15.30
2022-10-25T14:11:25.150Z,15.40
2022-10-25T14:14:29.458Z,15.50
2022-10-25T14:17:23.175Z,15.50
2022-10-25T14:19:54.761Z,15.60
2022-10-25T14:22:32.794Z,15.60
2022-10-25T14:25:19.539Z,15.60
2022-10-25T14:27:46.452Z,15.60
2022-10-25T14:30:28.656Z,15.50
2022-10-25T14:32:57.943Z,15.50
2022-10-25T14:35:30.787Z,15.40
2022-10-25T14:37:57.636Z,15.50
2022-10-25T14:40:28.951Z,15.30
2022-10-25T14:42:56.394Z,15.30
2022-10-25T14:45:25.329Z,15.30
2022-10-25T14:47:52.923Z,15.20
2022-10-25T14:50:25.332Z,15.20
2022-10-25T14:52:52.525Z,15.10
2022-10-25T14:55:29.578Z,15.10
2022-10-25T14:57:58.451Z,15.10
2022-10-25T15:00:25.648Z,15.20
2022-10-25T15:03:04.242Z,15.00
2022-10-25T15:05:31.135Z,15.00
2022-10-25T15:07:59.708Z,14.90
2022-10-25T15:10:42.419Z,14.90
2022-10-25T15:13:27.419Z,14.80
2022-10-25T15:15:54.723Z,14.80
2022-10-25T15:18:35.481Z,14.80
2022-10-25T15:21:17.762Z,14.70
2022-10-25T15:24:05.248Z,14.70
2022-10-25T15:26:35.716Z,14.60
2022-10-25T15:29:05.036Z,14.60
2022-10-25T15:31:32.647Z,14.60
2022-10-25T15:34:04.376Z,14.60
2022-10-25T15:36:33.546Z,14.50
2022-10-25T15:39:21.415Z,14.50
2022-10-25T15:41:48.263Z,14.40
2022-10-25T15:44:14.974Z,14.40
2022-10-25T15:46:41.790Z,14.40
2022-10-25T15:49:12.687Z,14.40
2022-10-25T15:51:40.604Z,14.40
2022-10-25T15:54:34.497Z,14.40
2022-10-25T15:57:01.202Z,14.30
2022-10-25T15:59:27.906Z,14.40
2022-10-25T16:01:55.601Z,14.30
2022-10-25T16:04:22.417Z,14.30
2022-10-25T16:06:49.246Z,14.30
2022-10-25T16:09:15.984Z,14.30
2022-10-25T16:11:47.294Z,14.30
2022-10-25T16:14:23.573Z,14.20
2022-10-25T16:16:51.013Z,14.20
2022-10-25T16:19:19.403Z,14.20
2022-10-25T16:21:46.446Z,14.20
2022-10-25T16:24:13.890Z,14.20
2022-10-25T16:26:43.305Z,14.20
2022-10-25T16:29:16.295Z,14.20
2022-10-25T16:31:43.764Z,14.20
2022-10-25T16:34:11.082Z,14.10
2022-10-25T16:36:38.405Z,14.10
2022-10-25T16:39:06.425Z,14.10
2022-10-25T16:41:33.491Z,14.00
2022-10-25T16:44:00.414Z,14.00
2022-10-25T16:46:27.289Z,13.90
2022-10-25T16:48:55.902Z,13.90
2022-10-25T16:51:25.752Z,13.90
2022-10-25T16:53:52.573Z,13.80
2022-10-25T16:56:19.312Z,13.80
2022-10-25T16:58:46.050Z,13.80
2022-10-25T17:01:28.401Z,13.70
2022-10-25T17:03:55.579Z,13.70
2022-10-25T17:06:40.106Z,13.60
2022-10-25T17:09:08.057Z,13.60
2022-10-25T17:11:35.120Z,13.60
2022-10-25T17:14:01.982Z,13.50
2022-10-25T17:16:28.724Z,13.60
2022-10-25T17:18:56.246Z,13.50
2022-10-25T17:21:23.587Z,13.50
2022-10-25T17:23:50.432Z,13.40
2022-10-25T17:26:17.734Z,13.40
2022-10-25T17:28:44.778Z,13.40
2022-10-25T17:31:13.605Z,13.30
2022-10-25T17:33:41.806Z,13.30
2022-10-25T17:36:14.565Z,13.20
2022-10-25T17:38:41.931Z,13.20
2022-10-25T17:41:09.802Z,13.10
2022-10-25T17:43:38.050Z,13.10
2022-10-25T17:46:16.672Z,13.10
2022-10-25T17:48:43.449Z,13.00
2022-10-25T17:51:12.174Z,13.10
2022-10-25T17:53:39.069Z,13.10
2022-10-25T17:56:19.136Z,13.10
2022-10-25T17:58:48.252Z,13.10
2022-10-25T18:01:21.785Z,13.10
2022-10-25T18:03:48.717Z,13.10
2022-10-25T18:06:17.633Z,13.10
2022-10-25T18:09:04.810Z,13.10
2022-10-25T18:11:31.763Z,13.10
2022-10-25T18:14:00.715Z,13.10
2022-10-25T18:16:30.646Z,13.10
2022-10-25T18:19:00.067Z,13.10
2022-10-25T18:21:27.494Z,13.10
2022-10-25T18:23:58.505Z,13.10
2022-10-25T18:26:25.832Z,13.00
2022-10-25T18:28:53.195Z,12.90
2022-10-25T18:31:20.912Z,13.00
2022-10-25T18:33:50.551Z,13.00
2022-10-25T18:36:19.814Z,13.00
2022-10-25T18:38:48.087Z,13.00
2022-10-25T18:41:21.939Z,13.00
2022-10-25T18:43:48.953Z,12.90
2022-10-25T18:46:15.992Z,12.90
2022-10-25T18:48:45.170Z,12.90
2022-10-25T18:51:13.990Z,12.90
2022-10-25T18:53:40.785Z,12.90
2022-10-25T18:56:13.021Z,12.90
2022-10-25T18:58:41.336Z,12.90
2022-10-25T19:01:17.084Z,12.80
2022-10-25T19:03:44.599Z,12.80
2022-10-25T19:06:12.113Z,12.80
2022-10-25T19:08:39.747Z,12.80
2022-10-25T19:11:12.269Z,12.80
2022-10-25T19:13:40.393Z,12.70
2022-10-25T19:16:07.411Z,12.80
2022-10-25T19:18:35.499Z,12.70
2022-10-25T19:21:13.935Z,12.70
2022-10-25T19:23:42.711Z,12.70
2022-10-25T19:26:13.539Z,12.70
2022-10-25T19:28:40.273Z,12.70
2022-10-25T19:31:12.044Z,12.70
2022-10-25T19:33:38.889Z,12.60
2022-10-25T19:36:10.612Z,12.60
2022-10-25T19:38:38.487Z,12.60
2022-10-25T19:41:08.410Z,12.60
2022-10-25T19:43:36.293Z,12.50
2022-10-25T19:46:06.133Z,12.50
2022-10-25T19:48:34.189Z,12.50
2022-10-25T19:51:10.415Z,12.40
2022-10-25T19:53:37.657Z,12.40
2022-10-25T19:56:14.587Z,12.30
2022-10-25T19:58:41.579Z,12.30
2022-10-25T20:01:15.612Z,12.30
2022-10-25T20:03:44.016Z,12.20
2022-10-25T20:06:17.524Z,12.20
2022-10-25T20:08:47.409Z,12.20
2022-10-25T20:11:15.145Z,12.10
2022-10-25T20:13:41.883Z,12.10
2022-10-25T20:16:08.929Z,12.00
2022-10-25T20:18:38.150Z,12.00
2022-10-25T20:21:26.131Z,12.00
2022-10-25T20:23:55.524Z,11.90
2022-10-25T20:26:27.908Z,11.90
2022-10-25T20:29:00.569Z,11.90
2022-10-25T20:31:29.428Z,11.90
2022-10-25T20:33:56.686Z,11.70
2022-10-25T20:36:23.848Z,11.80
2022-10-25T20:38:50.835Z,11.80
2022-10-25T20:41:26.204Z,11.80
2022-10-25T20:43:54.795Z,11.80
2022-10-25T20:46:23.366Z,11.80
2022-10-25T20:48:50.334Z,11.70
2022-10-25T20:51:17.921Z,11.70
2022-10-25T20:53:45.689Z,11.70
2022-10-25T20:56:13.376Z,11.60
2022-10-25T20:58:40.134Z,11.60
2022-10-25T21:01:07.058Z,11.50
2022-10-25T21:03:34.117Z,11.50
2022-10-25T21:06:03.476Z,11.50
2022-10-25T21:08:30.975Z,11.50
2022-10-25T21:10:59.980Z,11.50
2022-10-25T21:13:29.695Z,11.40
2022-10-25T21:15:56.427Z,11.40
2022-10-25T21:18:27.094Z,11.40
2022-10-25T21:20:55.292Z,11.40
2022-10-25T21:23:22.156Z,11.30
2022-10-25T21:25:56.484Z,11.30
2022-10-25T21:28:23.424Z,11.30
2022-10-25T21:30:51.133Z,11.20
2022-10-25T21:33:17.975Z,11.20
2022-10-25T21:35:44.674Z,11.10
2022-10-25T21:38:11.457Z,11.10
2022-10-25T21:40:38.186Z,11.10
2022-10-25T21:43:04.905Z,11.00
2022-10-25T21:45:31.597Z,11.00
2022-10-25T21:47:58.320Z,11.00
2022-10-25T21:50:25.086Z,11.00
2022-10-25T21:52:53.382Z,11.00
2022-10-25T21:55:20.071Z,11.00
2022-10-25T21:57:50.610Z,11.00
2022-10-25T22:00:20.774Z,11.00
2022-10-25T22:02:47.516Z,11.00
2022-10-25T22:05:14.267Z,11.00
2022-10-25T22:07:41.000Z,11.00
2022-10-25T22:10:08.116Z,11.00
2022-10-25T22:12:34.819Z,10.90
2022-10-25T22:15:01.514Z,10.90
2022-10-25T22:17:28.347Z,10.90
2022-10-25T22:19:55.048Z,10.90
2022-10-25T22:22:21.972Z,10.90
2022-10-25T22:24:48.689Z,10.80
2022-10-25T22:27:15.423Z,10.80
2022-10-25T22:29:42.125Z,10.70
2022-10-25T22:32:08.857Z,10.70
2022-10-25T22:34:35.525Z,10.70
2022-10-25T22:37:02.269Z,10.60
2022-10-25T22:39:28.979Z,10.60
2022-10-25T22:41:55.895Z,10.50
2022-10-25T22:46:54.252Z,10.50
2022-10-25T22:49:21.674Z,10.50
2022-10-25T22:51:48.476Z,10.40
2022-10-25T22:54:15.258Z,10.40
2022-10-25T22:56:41.938Z,10.30
2022-10-25T22:59:12.110Z,10.30
2022-10-25T23:01:39.234Z,10.30
2022-10-25T23:04:08.639Z,10.30
2022-10-25T23:06:38.676Z,10.20
2022-10-25T23:09:08.988Z,10.20
2022-10-25T23:11:37.262Z,10.20
2022-10-25T23:14:05.198Z,10.20
2022-10-25T23:16:32.107Z,10.20
2022-10-25T23:18:58.864Z,10.30
2022-10-25T23:21:27.709Z,10.20
2022-10-25T23:23:55.865Z,10.30
2022-10-25T23:26:28.047Z,10.30
2022-10-25T23:28:55.740Z,10.40
2022-10-25T23:31:23.187Z,10.40
2022-10-25T23:33:54.659Z,10.40
2022-10-25T23:36:23.505Z,10.40
2022-10-25T23:38:51.698Z,10.40
2022-10-25T23:41:20.309Z,10.40
2022-10-25T23:43:47.187Z,10.40
2022-10-25T23:46:13.976Z,10.40
2022-10-25T23:48:40.732Z,10.40
2022-10-25T23:51:10.050Z,10.40
2022-10-25T23:53:37.430Z,10.50
2022-10-25T23:56:06.418Z,10.50
2022-10-25T23:58:33.698Z,10.50
